createdAt,value
2023-08-23T05:01:07.718Z,2.63
2023-08-23T05:03:38.736Z,1.88
2023-08-23T05:06:05.847Z,2.47
2023-08-23T05:08:34.996Z,2.25
2023-08-23T05:11:05.802Z,1.67
2023-08-23T05:13:33.503Z,2.05
2023-08-23T05:16:01.756Z,1.95
2023-08-23T05:18:28.966Z,2.08
2023-08-23T05:20:57.334Z,2.88
2023-08-23T05:23:24.438Z,1.50
2023-08-23T05:25:53.034Z,2.25
2023-08-23T05:28:23.311Z,2.00
2023-08-23T05:30:52.912Z,2.33
2023-08-23T05:33:23.913Z,2.60
2023-08-23T05:35:50.652Z,2.67
2023-08-23T05:38:17.603Z,1.73
2023-08-23T05:40:47.017Z,1.83
2023-08-23T05:43:14.261Z,2.75
2023-08-23T05:45:40.999Z,3.00
2023-08-23T05:48:07.889Z,2.20
2023-08-23T05:50:34.661Z,2.58
2023-08-23T05:53:01.627Z,2.45
2023-08-23T05:55:28.294Z,2.53
2023-08-23T05:57:54.941Z,2.53
2023-08-23T06:00:22.297Z,2.28
2023-08-23T06:02:49.189Z,2.42
2023-08-23T06:05:16.008Z,1.90
2023-08-23T06:07:42.923Z,2.53
2023-08-23T06:10:10.781Z,2.22
2023-08-23T06:12:44.868Z,2.13
2023-08-23T06:15:11.636Z,2.45
2023-08-23T06:17:38.344Z,3.28
2023-08-23T06:20:06.072Z,2.50
2023-08-23T06:22:32.816Z,2.25
2023-08-23T06:24:59.484Z,2.10
2023-08-23T06:27:26.119Z,2.35
2023-08-23T06:29:52.780Z,2.20
2023-08-23T06:32:20.278Z,2.25
2023-08-23T06:34:47.007Z,2.40
2023-08-23T06:37:13.726Z,3.25
2023-08-23T06:39:40.625Z,1.98
2023-08-23T06:42:07.580Z,2.05
2023-08-23T06:44:34.362Z,2.58
2023-08-23T06:47:01.105Z,2.35
2023-08-23T06:49:27.763Z,2.60
2023-08-23T06:51:54.409Z,2.63
2023-08-23T06:54:21.179Z,2.25
2023-08-23T06:56:47.995Z,3.00
2023-08-23T06:59:14.619Z,1.95
2023-08-23T07:01:41.414Z,3.03
2023-08-23T07:04:08.151Z,2.03
2023-08-23T07:06:34.872Z,2.15
2023-08-23T07:09:01.529Z,2.50
2023-08-23T07:11:28.250Z,1.83
2023-08-23T07:13:54.859Z,1.95
2023-08-23T07:16:21.629Z,2.20
2023-08-23T07:18:48.355Z,2.10
2023-08-23T07:21:16.450Z,1.85
2023-08-23T07:23:43.708Z,2.10
2023-08-23T07:26:10.596Z,2.15
2023-08-23T07:28:37.461Z,2.63
2023-08-23T07:31:04.731Z,2.17
2023-08-23T07:33:31.486Z,1.83
2023-08-23T07:35:59.516Z,1.88
2023-08-23T07:41:06.962Z,2.20
2023-08-23T07:43:33.767Z,1.83
2023-08-23T07:46:01.873Z,1.90
2023-08-23T07:48:29.075Z,2.38
2023-08-23T07:50:57.914Z,2.13
2023-08-23T07:53:24.988Z,2.13
2023-08-23T07:55:51.779Z,1.70
2023-08-23T07:58:18.728Z,2.40
2023-08-23T08:00:45.463Z,2.30
2023-08-23T08:03:12.401Z,2.30
2023-08-23T08:05:39.507Z,2.20
2023-08-23T08:08:09.779Z,2.10
2023-08-23T08:10:37.737Z,1.80
2023-08-23T08:13:04.944Z,2.40
2023-08-23T08:15:32.966Z,1.92
2023-08-23T08:18:00.109Z,1.95
2023-08-23T08:20:27.306Z,1.90
2023-08-23T08:22:54.163Z,2.03
2023-08-23T08:25:21.416Z,1.80
2023-08-23T08:27:48.845Z,2.10
2023-08-23T08:30:16.187Z,1.98
2023-08-23T08:32:43.047Z,2.22
2023-08-23T08:35:10.434Z,2.60
2023-08-23T08:37:38.209Z,2.03
2023-08-23T08:40:05.558Z,1.45
2023-08-23T08:42:33.183Z,1.67
2023-08-23T08:45:00.394Z,1.90
2023-08-23T08:47:27.334Z,1.73
2023-08-23T08:49:54.168Z,2.22
2023-08-23T08:52:22.053Z,1.65
2023-08-23T08:57:16.644Z,1.60
2023-08-23T08:59:45.102Z,1.50
2023-08-23T09:02:15.854Z,1.60
2023-08-23T09:04:47.533Z,1.65
2023-08-23T09:07:14.683Z,1.30
2023-08-23T09:09:42.798Z,1.48
2023-08-23T09:12:09.607Z,1.60
2023-08-23T09:14:36.337Z,1.38
2023-08-23T09:17:03.294Z,1.30
2023-08-23T09:19:30.010Z,1.33
2023-08-23T09:21:56.928Z,1.10
2023-08-23T09:24:23.607Z,1.75
2023-08-23T09:26:50.410Z,1.60
2023-08-23T09:29:20.002Z,1.67
2023-08-23T09:31:46.750Z,1.35
2023-08-23T09:34:15.812Z,1.50
2023-08-23T09:36:43.109Z,1.50
2023-08-23T09:39:11.367Z,1.50
2023-08-23T09:41:55.330Z,1.35
2023-08-23T09:44:27.629Z,1.50
2023-08-23T09:49:24.089Z,1.50
2023-08-23T09:51:54.101Z,1.40
2023-08-23T09:54:43.579Z,1.65
2023-08-23T09:57:20.154Z,1.58
2023-08-23T09:59:47.599Z,1.60
2023-08-23T10:02:17.596Z,1.70
2023-08-23T10:04:44.599Z,1.58
2023-08-23T11:12:34.142Z,1.17
2023-08-23T11:15:01.080Z,1.23
2023-08-23T11:17:27.782Z,1.42
2023-08-23T11:19:54.747Z,1.73
2023-08-23T11:22:21.533Z,1.63
2023-08-23T11:24:48.297Z,1.27
2023-08-23T11:27:15.174Z,1.40
2023-08-23T11:29:43.758Z,1.40
2023-08-23T11:32:13.276Z,1.13
2023-08-23T11:34:40.326Z,1.40
2023-08-23T11:37:10.932Z,1.40
2023-08-23T11:39:37.700Z,1.10
2023-08-23T11:42:04.653Z,1.23
2023-08-23T11:44:31.777Z,1.65
2023-08-23T11:46:59.504Z,1.50
2023-08-23T11:49:26.914Z,1.63
2023-08-23T11:51:55.010Z,1.63
2023-08-23T11:54:23.388Z,1.33
2023-08-23T11:56:50.181Z,1.20
2023-08-23T11:59:17.101Z,1.93
2023-08-23T12:01:44.641Z,1.35
2023-08-23T12:04:12.828Z,1.65
2023-08-23T12:06:42.984Z,1.70
2023-08-23T12:09:11.864Z,1.27
2023-08-23T12:11:38.948Z,1.30
2023-08-23T12:14:07.635Z,1.38
2023-08-23T12:16:35.415Z,1.40
2023-08-23T12:19:02.567Z,1.33
2023-08-23T12:21:32.172Z,1.58
2023-08-23T12:23:58.882Z,1.48
2023-08-23T12:26:25.637Z,1.30
2023-08-23T12:28:52.739Z,1.10
2023-08-23T12:31:20.553Z,1.35
2023-08-23T12:33:47.827Z,1.15
2023-08-23T12:36:15.856Z,1.50
2023-08-23T12:38:43.015Z,1.33
2023-08-23T12:41:09.911Z,1.45
2023-08-23T12:43:36.613Z,1.30
2023-08-23T12:46:03.626Z,1.27
2023-08-23T12:48:30.362Z,1.10
2023-08-23T12:50:57.188Z,1.42
2023-08-23T12:53:23.920Z,1.02
2023-08-23T12:55:54.604Z,1.33
2023-08-23T12:58:22.296Z,1.35
2023-08-23T13:00:49.212Z,1.20
2023-08-23T13:03:16.057Z,1.10
2023-08-23T13:05:42.773Z,1.50
2023-08-23T13:08:09.450Z,1.05
2023-08-23T13:10:36.152Z,0.90
2023-08-23T13:13:02.928Z,0.98
2023-08-23T13:15:29.693Z,0.98
2023-08-23T13:17:57.239Z,1.10
2023-08-23T13:20:25.909Z,1.13
2023-08-23T13:22:53.324Z,1.35
2023-08-23T13:25:20.082Z,1.10
2023-08-23T13:27:47.032Z,1.33
2023-08-23T13:32:40.681Z,1.38
2023-08-23T13:35:07.677Z,1.02
2023-08-23T13:37:35.882Z,1.33
2023-08-23T13:40:06.116Z,1.20
2023-08-23T13:42:33.537Z,1.30
2023-08-23T13:45:00.215Z,1.55
2023-08-23T13:47:26.882Z,1.30
2023-08-23T13:49:53.632Z,1.30
2023-08-23T13:52:20.289Z,1.10
2023-08-23T13:54:46.927Z,1.00
2023-08-23T13:57:14.181Z,1.13
2023-08-23T14:04:38.036Z,0.90
2023-08-23T14:07:05.986Z,1.25
2023-08-23T14:09:33.271Z,1.08
2023-08-23T14:11:59.897Z,1.10
2023-08-23T14:14:27.181Z,1.05
2023-08-23T14:16:56.713Z,1.27
2023-08-23T14:19:25.330Z,0.95
2023-08-23T14:21:51.993Z,1.10
2023-08-23T14:24:18.734Z,1.00
2023-08-23T14:26:45.469Z,1.17
2023-08-23T14:29:12.340Z,1.08
2023-08-23T14:31:39.306Z,1.40
2023-08-23T14:34:06.180Z,1.35
2023-08-23T14:36:32.795Z,1.30
2023-08-23T14:39:00.823Z,1.00
2023-08-23T14:41:27.710Z,1.20
2023-08-23T14:43:54.347Z,1.20
2023-08-23T14:46:21.185Z,1.05
2023-08-23T14:51:14.534Z,1.00
2023-08-23T14:53:43.276Z,0.98
2023-08-23T14:56:10.035Z,1.27
2023-08-23T14:58:36.660Z,1.17
2023-08-23T15:01:03.568Z,1.05
2023-08-23T15:03:30.324Z,0.98
2023-08-23T15:05:57.143Z,0.95
2023-08-23T15:08:25.560Z,1.40
2023-08-23T15:10:56.466Z,1.20
2023-08-23T15:13:23.370Z,1.38
2023-08-23T15:16:03.443Z,1.20
2023-08-23T15:18:30.230Z,1.15
2023-08-23T15:20:57.011Z,1.60
2023-08-23T15:23:23.956Z,1.10
2023-08-23T15:28:18.090Z,1.23
2023-08-23T15:30:44.738Z,1.30
2023-08-23T15:33:11.474Z,1.10
2023-08-23T15:35:38.212Z,0.90
2023-08-23T15:38:05.146Z,1.63
2023-08-23T15:42:58.431Z,1.38
2023-08-23T15:45:25.118Z,1.23
2023-08-23T15:47:54.563Z,1.27
2023-08-23T15:50:23.109Z,1.42
2023-08-23T15:57:43.021Z,1.17
2023-08-23T16:02:40.836Z,1.35
2023-08-23T16:07:34.355Z,1.40
2023-08-23T16:10:02.170Z,1.20
2023-08-23T16:12:28.972Z,1.00
2023-08-23T16:14:55.652Z,0.95
2023-08-23T16:17:22.355Z,1.30
2023-08-23T16:19:49.220Z,1.17
2023-08-23T16:22:15.841Z,1.20
2023-08-23T16:24:43.254Z,1.25
2023-08-23T16:27:09.983Z,1.40
2023-08-23T16:29:36.731Z,1.55
2023-08-23T16:32:03.486Z,1.60
2023-08-23T16:34:30.402Z,1.20
2023-08-23T16:36:57.124Z,1.60
2023-08-23T16:39:23.791Z,1.80
2023-08-23T16:41:52.619Z,1.42
2023-08-23T16:44:20.456Z,1.17
2023-08-23T16:46:47.774Z,1.38
2023-08-23T16:51:41.336Z,1.00
2023-08-23T16:54:08.023Z,1.13
2023-08-23T16:56:35.811Z,1.10
2023-08-23T16:59:02.660Z,1.10
2023-08-23T17:01:29.404Z,1.10
2023-08-23T17:03:56.161Z,1.30
2023-08-23T17:06:22.799Z,1.63
2023-08-23T17:08:49.956Z,1.53
2023-08-23T17:11:16.872Z,1.10
2023-08-23T17:13:43.626Z,1.38
2023-08-23T17:16:10.559Z,1.23
2023-08-23T17:18:37.353Z,1.27
2023-08-23T17:21:04.062Z,1.50
2023-08-23T17:23:31.212Z,1.33
2023-08-23T17:25:58.143Z,1.50
2023-08-23T17:28:24.915Z,1.40
2023-08-23T17:30:52.563Z,1.50
2023-08-23T17:33:21.326Z,1.40
2023-08-23T17:35:48.456Z,1.25
2023-08-23T17:38:15.403Z,1.30
2023-08-23T17:40:42.108Z,1.17
2023-08-23T17:43:09.449Z,1.33
2023-08-23T17:45:36.519Z,1.20
2023-08-23T17:48:04.119Z,1.20
2023-08-23T17:50:30.893Z,1.45
2023-08-23T17:52:59.592Z,1.52
2023-08-23T17:55:26.501Z,1.45
2023-08-23T17:57:53.187Z,1.10
2023-08-23T18:00:20.920Z,1.65
2023-08-23T18:05:14.821Z,1.45
2023-08-23T18:07:41.553Z,1.30
2023-08-23T18:10:09.432Z,1.45
2023-08-23T18:12:36.432Z,1.70
2023-08-23T18:15:04.238Z,1.50
2023-08-23T18:17:30.950Z,1.38
2023-08-23T18:19:58.633Z,1.50
2023-08-23T18:22:25.303Z,1.20
2023-08-23T18:24:52.084Z,1.08
2023-08-23T18:27:18.718Z,1.38
2023-08-23T18:29:45.343Z,1.20
2023-08-23T18:32:13.052Z,1.38
2023-08-23T18:37:22.989Z,1.58
2023-08-23T18:39:49.686Z,1.65
2023-08-23T18:42:18.929Z,1.30
2023-08-23T18:45:13.655Z,1.35
2023-08-23T18:48:30.761Z,0.98
2023-08-23T18:54:18.459Z,1.30
2023-08-23T18:55:09.799Z,1.60
2023-08-23T19:10:25.122Z,1.10
2023-08-23T19:12:51.993Z,1.45
2023-08-23T19:15:27.941Z,1.70
2023-08-23T19:17:54.701Z,1.70
2023-08-23T19:24:38.988Z,1.55
2023-08-23T19:27:05.776Z,1.58
2023-08-23T19:29:32.438Z,1.07
2023-08-23T19:32:04.688Z,1.38
2023-08-23T19:34:41.353Z,1.23
2023-08-23T19:37:38.939Z,2.00
2023-08-23T19:45:28.801Z,1.70
2023-08-23T19:52:22.903Z,2.05
2023-08-23T20:02:14.909Z,1.30
2023-08-23T20:04:41.847Z,1.90
2023-08-23T20:07:08.645Z,1.45
2023-08-23T20:09:35.341Z,1.45
2023-08-23T20:12:02.022Z,1.70
2023-08-23T20:18:53.128Z,1.73
2023-08-23T20:21:19.862Z,1.63
2023-08-23T20:31:16.281Z,1.92
2023-08-23T20:38:09.174Z,1.40
2023-08-23T20:49:44.322Z,1.58
2023-08-23T20:56:32.590Z,2.58
2023-08-23T20:58:59.947Z,1.73
2023-08-23T21:05:14.306Z,1.67
2023-08-23T21:07:41.030Z,1.95
2023-08-23T21:10:08.003Z,1.42
2023-08-23T21:12:35.414Z,1.50
2023-08-23T21:15:02.201Z,1.58
2023-08-23T21:20:10.125Z,1.42
2023-08-23T21:22:36.746Z,1.70
2023-08-23T21:33:29.538Z,1.42
2023-08-23T21:36:46.825Z,2.38
2023-08-23T21:39:16.343Z,1.83
2023-08-23T21:41:42.986Z,1.88
2023-08-23T21:44:09.674Z,1.92
2023-08-23T21:46:36.390Z,1.98
2023-08-23T21:49:05.563Z,1.70
2023-08-23T21:51:42.358Z,1.90
2023-08-23T21:54:23.638Z,1.42
2023-08-23T22:03:37.735Z,1.92
2023-08-23T22:06:07.311Z,1.83
2023-08-23T22:08:35.626Z,1.80
2023-08-23T22:11:03.324Z,2.20
2023-08-23T22:13:30.014Z,1.83
2023-08-23T22:15:56.907Z,1.70
2023-08-23T22:18:24.927Z,1.40
2023-08-23T22:20:54.815Z,1.77
2023-08-23T22:23:23.040Z,1.92
2023-08-23T22:25:50.066Z,1.30
2023-08-23T22:28:16.965Z,1.70
2023-08-23T22:30:43.799Z,2.00
2023-08-23T22:33:10.620Z,1.80
2023-08-23T22:35:38.375Z,2.08
2023-08-23T22:38:06.655Z,1.45
2023-08-23T22:40:36.940Z,1.98
2023-08-23T22:43:03.994Z,2.13
2023-08-23T22:45:31.775Z,1.90
2023-08-23T22:48:01.012Z,1.98
2023-08-23T22:50:28.459Z,1.98
2023-08-23T22:53:02.859Z,1.47
2023-08-23T22:55:31.453Z,1.55
2023-08-23T22:57:58.349Z,1.58
2023-08-23T23:03:33.384Z,2.13
2023-08-23T23:07:05.863Z,1.85
2023-08-23T23:13:33.243Z,1.60
2023-08-23T23:16:05.618Z,2.13
2023-08-23T23:18:36.987Z,2.25
2023-08-23T23:21:09.247Z,1.70
2023-08-23T23:23:43.430Z,2.22
2023-08-23T23:26:13.754Z,2.60
2023-08-23T23:28:46.720Z,2.08
2023-08-23T23:31:19.369Z,1.73
2023-08-23T23:33:46.244Z,2.00
2023-08-23T23:36:25.871Z,2.13
2023-08-23T23:39:00.619Z,2.40
2023-08-23T23:41:30.564Z,1.73
2023-08-23T23:44:07.676Z,1.60
2023-08-23T23:46:36.788Z,2.10
2023-08-23T23:49:03.493Z,2.30
2023-08-23T23:51:35.789Z,1.60
2023-08-23T23:54:04.650Z,1.67
2023-08-23T23:59:50.902Z,1.88
